sensor_id;sensor_type;location;lat;lon;timestamp;pressure;altitude;pressure_sealevel;temperature;humidity
35676;BME280;21790;42.668;23.298;2023-02-25T00:01:11;94081.19;;;15.12;43.84
35676;BME280;21790;42.668;23.298;2023-02-25T00:03:37;94075.88;;;14.97;44.12
35676;BME280;21790;42.668;23.298;2023-02-25T00:06:04;94081.91;;;14.68;45.16
35676;BME280;21790;42.668;23.298;2023-02-25T00:08:30;94080.44;;;14.78;44.64
35676;BME280;21790;42.668;23.298;2023-02-25T00:11:02;94080.69;;;15.02;44.28
35676;BME280;21790;42.668;23.298;2023-02-25T00:13:28;94085.44;;;14.57;44.93
35676;BME280;21790;42.668;23.298;2023-02-25T00:15:54;94087.63;;;14.36;45.62
35676;BME280;21790;42.668;23.298;2023-02-25T00:18:27;94090.22;;;14.45;45.71
35676;BME280;21790;42.668;23.298;2023-02-25T00:20:53;94082.19;;;14.70;44.62
35676;BME280;21790;42.668;23.298;2023-02-25T00:23:19;94077.63;;;14.67;44.89
35676;BME280;21790;42.668;23.298;2023-02-25T00:25:45;94073.03;;;14.52;45.27
35676;BME280;21790;42.668;23.298;2023-02-25T00:28:10;94065.50;;;14.75;44.75
35676;BME280;21790;42.668;23.298;2023-02-25T00:30:37;94073.88;;;14.05;46.37
35676;BME280;21790;42.668;23.298;2023-02-25T00:33:03;94077.88;;;13.93;46.64
35676;BME280;21790;42.668;23.298;2023-02-25T00:35:31;94041.44;;;13.74;46.65
35676;BME280;21790;42.668;23.298;2023-02-25T00:37:56;94067.63;;;14.21;46.00
35676;BME280;21790;42.668;23.298;2023-02-25T00:40:22;94065.69;;;14.44;45.34
35676;BME280;21790;42.668;23.298;2023-02-25T00:42:47;94055.00;;;14.20;45.72
35676;BME280;21790;42.668;23.298;2023-02-25T00:45:14;94048.16;;;14.21;45.57
35676;BME280;21790;42.668;23.298;2023-02-25T00:47:41;94050.91;;;14.10;46.13
35676;BME280;21790;42.668;23.298;2023-02-25T00:50:09;94047.97;;;13.71;47.24
35676;BME280;21790;42.668;23.298;2023-02-25T00:52:36;94038.97;;;13.87;46.52
35676;BME280;21790;42.668;23.298;2023-02-25T00:55:04;94052.66;;;13.96;46.40
35676;BME280;21790;42.668;23.298;2023-02-25T00:57:31;94033.75;;;14.11;45.98
35676;BME280;21790;42.668;23.298;2023-02-25T00:59:57;94025.91;;;14.10;45.77
35676;BME280;21790;42.668;23.298;2023-02-25T01:02:22;94047.03;;;13.37;47.67
35676;BME280;21790;42.668;23.298;2023-02-25T01:04:48;94031.59;;;13.78;46.98
35676;BME280;21790;42.668;23.298;2023-02-25T01:07:13;94012.50;;;14.08;46.31
35676;BME280;21790;42.668;23.298;2023-02-25T01:09:39;94022.50;;;13.72;46.89
35676;BME280;21790;42.668;23.298;2023-02-25T01:12:04;94003.84;;;13.84;46.60
35676;BME280;21790;42.668;23.298;2023-02-25T01:14:30;94001.94;;;14.18;45.75
35676;BME280;21790;42.668;23.298;2023-02-25T01:16:56;94016.25;;;13.35;47.52
35676;BME280;21790;42.668;23.298;2023-02-25T01:19:25;94002.50;;;13.57;47.12
35676;BME280;21790;42.668;23.298;2023-02-25T01:21:54;94020.34;;;13.45;47.58
35676;BME280;21790;42.668;23.298;2023-02-25T01:24:26;94017.09;;;13.52;47.82
35676;BME280;21790;42.668;23.298;2023-02-25T01:26:52;94008.97;;;14.08;46.28
35676;BME280;21790;42.668;23.298;2023-02-25T01:29:23;94010.66;;;13.77;46.86
35676;BME280;21790;42.668;23.298;2023-02-25T01:31:55;94010.72;;;13.04;48.87
35676;BME280;21790;42.668;23.298;2023-02-25T01:34:21;93994.53;;;13.33;47.92
35676;BME280;21790;42.668;23.298;2023-02-25T01:36:47;93998.47;;;13.69;46.86
35676;BME280;21790;42.668;23.298;2023-02-25T01:39:14;94025.69;;;12.80;49.03
35676;BME280;21790;42.668;23.298;2023-02-25T01:41:40;94009.38;;;13.25;48.09
35676;BME280;21790;42.668;23.298;2023-02-25T01:46:36;94016.03;;;13.44;47.60
35676;BME280;21790;42.668;23.298;2023-02-25T01:49:04;93993.84;;;13.44;47.73
35676;BME280;21790;42.668;23.298;2023-02-25T01:51:31;94003.47;;;13.54;47.28
35676;BME280;21790;42.668;23.298;2023-02-25T01:53:58;93995.56;;;13.90;46.64
35676;BME280;21790;42.668;23.298;2023-02-25T01:56:28;94000.06;;;13.87;46.37
35676;BME280;21790;42.668;23.298;2023-02-25T01:58:54;94004.56;;;13.73;46.77
35676;BME280;21790;42.668;23.298;2023-02-25T02:01:22;94001.31;;;13.80;46.73
35676;BME280;21790;42.668;23.298;2023-02-25T02:03:51;94004.16;;;14.03;45.84
35676;BME280;21790;42.668;23.298;2023-02-25T02:06:20;94007.72;;;13.44;47.48
35676;BME280;21790;42.668;23.298;2023-02-25T02:08:47;93983.34;;;13.70;46.90
35676;BME280;21790;42.668;23.298;2023-02-25T02:11:14;93990.50;;;13.94;46.47
35676;BME280;21790;42.668;23.298;2023-02-25T02:13:47;93980.13;;;13.89;46.77
35676;BME280;21790;42.668;23.298;2023-02-25T02:16:36;93983.03;;;14.33;45.78
35676;BME280;21790;42.668;23.298;2023-02-25T02:22:12;93978.84;;;13.78;47.06
35676;BME280;21790;42.668;23.298;2023-02-25T02:33:10;93971.19;;;14.60;45.29
35676;BME280;21790;42.668;23.298;2023-02-25T02:35:50;93963.81;;;14.35;45.80
35676;BME280;21790;42.668;23.298;2023-02-25T02:38:36;93962.09;;;14.43;45.73
35676;BME280;21790;42.668;23.298;2023-02-25T02:43:49;93954.75;;;14.62;45.17
35676;BME280;21790;42.668;23.298;2023-02-25T02:49:10;93944.66;;;14.37;45.55
35676;BME280;21790;42.668;23.298;2023-02-25T02:52:04;93944.66;;;14.65;45.01
35676;BME280;21790;42.668;23.298;2023-02-25T02:54:34;93940.63;;;14.55;44.96
35676;BME280;21790;42.668;23.298;2023-02-25T02:57:02;93934.53;;;14.56;45.06
35676;BME280;21790;42.668;23.298;2023-02-25T03:02:03;93918.59;;;14.74;44.69
35676;BME280;21790;42.668;23.298;2023-02-25T03:04:32;93938.50;;;14.00;46.32
35676;BME280;21790;42.668;23.298;2023-02-25T03:07:05;93940.28;;;14.03;46.35
35676;BME280;21790;42.668;23.298;2023-02-25T03:09:42;93942.59;;;14.21;45.95
35676;BME280;21790;42.668;23.298;2023-02-25T03:12:12;93947.34;;;13.98;46.49
35676;BME280;21790;42.668;23.298;2023-02-25T03:14:38;93951.28;;;13.69;46.87
35676;BME280;21790;42.668;23.298;2023-02-25T03:17:10;93934.94;;;13.82;46.86
35676;BME280;21790;42.668;23.298;2023-02-25T03:22:38;93949.03;;;13.14;48.59
35676;BME280;21790;42.668;23.298;2023-02-25T03:25:32;93925.47;;;13.47;47.73
35676;BME280;21790;42.668;23.298;2023-02-25T03:28:03;93936.69;;;13.74;46.94
35676;BME280;21790;42.668;23.298;2023-02-25T03:30:39;93956.53;;;13.51;47.80
35676;BME280;21790;42.668;23.298;2023-02-25T03:33:17;93924.84;;;13.85;46.78
35676;BME280;21790;42.668;23.298;2023-02-25T03:35:45;93938.00;;;13.96;46.60
35676;BME280;21790;42.668;23.298;2023-02-25T03:38:18;93945.69;;;13.47;47.66
35676;BME280;21790;42.668;23.298;2023-02-25T03:40:46;93938.03;;;13.31;48.07
35676;BME280;21790;42.668;23.298;2023-02-25T03:43:17;93930.53;;;13.54;47.55
35676;BME280;21790;42.668;23.298;2023-02-25T03:45:46;93934.31;;;13.45;47.71
35676;BME280;21790;42.668;23.298;2023-02-25T03:48:14;93928.84;;;13.67;47.07
35676;BME280;21790;42.668;23.298;2023-02-25T03:50:49;93929.31;;;13.60;47.50
35676;BME280;21790;42.668;23.298;2023-02-25T03:53:15;93932.00;;;13.44;47.53
35676;BME280;21790;42.668;23.298;2023-02-25T03:55:41;93924.44;;;13.38;47.77
35676;BME280;21790;42.668;23.298;2023-02-25T03:58:08;93915.38;;;13.44;47.42
35676;BME280;21790;42.668;23.298;2023-02-25T04:00:35;93932.25;;;13.40;47.52
35676;BME280;21790;42.668;23.298;2023-02-25T04:03:01;93917.56;;;13.23;47.76
35676;BME280;21790;42.668;23.298;2023-02-25T04:05:28;93919.19;;;12.98;48.63
35676;BME280;21790;42.668;23.298;2023-02-25T04:07:55;93928.13;;;13.19;48.06
35676;BME280;21790;42.668;23.298;2023-02-25T04:10:21;93939.78;;;13.28;47.70
35676;BME280;21790;42.668;23.298;2023-02-25T04:12:47;93939.97;;;13.14;47.71
35676;BME280;21790;42.668;23.298;2023-02-25T04:15:15;93945.19;;;13.06;47.84
35676;BME280;21790;42.668;23.298;2023-02-25T04:17:41;93949.97;;;13.06;47.87
35676;BME280;21790;42.668;23.298;2023-02-25T04:20:07;93939.75;;;13.23;47.47
35676;BME280;21790;42.668;23.298;2023-02-25T04:22:33;93944.53;;;13.22;47.70
35676;BME280;21790;42.668;23.298;2023-02-25T04:24:59;93939.44;;;13.15;47.93
35676;BME280;21790;42.668;23.298;2023-02-25T04:27:25;93927.28;;;13.07;48.12
35676;BME280;21790;42.668;23.298;2023-02-25T04:29:51;93917.44;;;13.06;48.11
35676;BME280;21790;42.668;23.298;2023-02-25T04:32:17;93909.88;;;13.07;47.69
35676;BME280;21790;42.668;23.298;2023-02-25T04:34:42;93927.75;;;13.00;48.08
35676;BME280;21790;42.668;23.298;2023-02-25T04:37:08;93927.53;;;13.09;47.80
35676;BME280;21790;42.668;23.298;2023-02-25T04:39:34;93911.94;;;13.12;47.99
35676;BME280;21790;42.668;23.298;2023-02-25T04:42:00;93879.44;;;13.18;47.52
35676;BME280;21790;42.668;23.298;2023-02-25T04:44:26;93884.78;;;13.27;47.26
35676;BME280;21790;42.668;23.298;2023-02-25T04:46:52;93904.72;;;12.14;49.58
35676;BME280;21790;42.668;23.298;2023-02-25T04:49:20;93890.16;;;12.20;49.95
35676;BME280;21790;42.668;23.298;2023-02-25T04:51:46;93899.44;;;12.48;49.11
35676;BME280;21790;42.668;23.298;2023-02-25T04:54:13;93891.84;;;12.43;49.13
35676;BME280;21790;42.668;23.298;2023-02-25T04:56:39;93882.44;;;12.72;48.33
35676;BME280;21790;42.668;23.298;2023-02-25T04:59:04;93886.59;;;12.50;48.94
35676;BME280;21790;42.668;23.298;2023-02-25T05:01:30;93890.44;;;12.58;48.78
35676;BME280;21790;42.668;23.298;2023-02-25T05:03:57;93863.84;;;12.78;48.15
35676;BME280;21790;42.668;23.298;2023-02-25T05:06:26;93852.91;;;13.11;47.23
35676;BME280;21790;42.668;23.298;2023-02-25T05:08:52;93872.25;;;12.94;47.53
35676;BME280;21790;42.668;23.298;2023-02-25T05:11:18;93874.16;;;12.77;48.11
35676;BME280;21790;42.668;23.298;2023-02-25T05:13:44;93869.34;;;12.72;48.41
35676;BME280;21790;42.668;23.298;2023-02-25T05:16:12;93845.31;;;13.00;47.80
35676;BME280;21790;42.668;23.298;2023-02-25T05:18:39;93850.69;;;13.15;47.21
35676;BME280;21790;42.668;23.298;2023-02-25T05:21:13;93874.78;;;12.92;48.17
35676;BME280;21790;42.668;23.298;2023-02-25T05:23:40;93868.38;;;13.23;47.23
35676;BME280;21790;42.668;23.298;2023-02-25T05:26:07;93871.38;;;13.14;47.45
35676;BME280;21790;42.668;23.298;2023-02-25T05:28:34;93854.69;;;13.09;47.64
35676;BME280;21790;42.668;23.298;2023-02-25T05:31:03;93879.44;;;13.12;48.16
35676;BME280;21790;42.668;23.298;2023-02-25T05:33:29;93893.97;;;13.02;48.06
35676;BME280;21790;42.668;23.298;2023-02-25T05:35:54;93924.19;;;12.94;48.35
35676;BME280;21790;42.668;23.298;2023-02-25T05:38:20;93882.28;;;13.34;47.25
35676;BME280;21790;42.668;23.298;2023-02-25T05:40:45;93910.56;;;12.90;48.42
35676;BME280;21790;42.668;23.298;2023-02-25T05:43:11;93883.63;;;12.96;48.28
35676;BME280;21790;42.668;23.298;2023-02-25T05:45:36;93932.97;;;12.87;48.38
35676;BME280;21790;42.668;23.298;2023-02-25T05:48:02;93914.09;;;12.91;48.59
35676;BME280;21790;42.668;23.298;2023-02-25T05:50:27;93908.44;;;13.17;47.95
35676;BME280;21790;42.668;23.298;2023-02-25T05:52:53;93898.72;;;13.44;47.37
35676;BME280;21790;42.668;23.298;2023-02-25T05:55:19;93910.56;;;13.38;47.60
35676;BME280;21790;42.668;23.298;2023-02-25T05:57:44;93933.06;;;13.52;51.34
35676;BME280;21790;42.668;23.298;2023-02-25T06:00:11;93932.22;;;14.10;50.23
35676;BME280;21790;42.668;23.298;2023-02-25T06:02:40;93920.13;;;14.63;47.55
35676;BME280;21790;42.668;23.298;2023-02-25T06:05:06;93931.25;;;14.80;44.99
35676;BME280;21790;42.668;23.298;2023-02-25T06:07:32;93917.22;;;13.63;46.94
35676;BME280;21790;42.668;23.298;2023-02-25T06:09:59;93920.97;;;13.60;47.10
35676;BME280;21790;42.668;23.298;2023-02-25T06:12:28;93915.03;;;14.06;46.33
35676;BME280;21790;42.668;23.298;2023-02-25T06:14:54;93943.09;;;13.38;47.22
35676;BME280;21790;42.668;23.298;2023-02-25T06:17:20;93920.63;;;13.30;47.88
35676;BME280;21790;42.668;23.298;2023-02-25T06:19:46;93920.72;;;13.58;47.12
35676;BME280;21790;42.668;23.298;2023-02-25T06:22:12;93927.00;;;13.53;47.24
35676;BME280;21790;42.668;23.298;2023-02-25T06:27:32;93923.75;;;13.60;47.23
35676;BME280;21790;42.668;23.298;2023-02-25T06:30:00;93925.75;;;13.54;47.34
35676;BME280;21790;42.668;23.298;2023-02-25T06:32:27;93930.94;;;12.87;49.06
35676;BME280;21790;42.668;23.298;2023-02-25T06:34:53;93934.09;;;13.06;48.82
35676;BME280;21790;42.668;23.298;2023-02-25T06:37:19;93944.16;;;13.46;47.80
35676;BME280;21790;42.668;23.298;2023-02-25T06:39:44;93934.91;;;13.71;47.22
35676;BME280;21790;42.668;23.298;2023-02-25T06:42:10;93929.63;;;13.73;46.93
35676;BME280;21790;42.668;23.298;2023-02-25T06:44:35;93939.69;;;13.71;47.05
35676;BME280;21790;42.668;23.298;2023-02-25T06:47:01;93933.16;;;13.20;48.69
35676;BME280;21790;42.668;23.298;2023-02-25T06:49:28;93921.69;;;13.50;48.06
35676;BME280;21790;42.668;23.298;2023-02-25T06:51:54;93932.00;;;13.38;48.16
35676;BME280;21790;42.668;23.298;2023-02-25T06:54:20;93919.75;;;13.67;47.69
35676;BME280;21790;42.668;23.298;2023-02-25T06:56:46;93912.22;;;13.90;47.40
35676;BME280;21790;42.668;23.298;2023-02-25T06:59:13;93905.94;;;13.95;47.30
35676;BME280;21790;42.668;23.298;2023-02-25T07:01:41;93899.38;;;14.20;46.96
35676;BME280;21790;42.668;23.298;2023-02-25T07:04:08;93896.56;;;13.98;47.02
35676;BME280;21790;42.668;23.298;2023-02-25T07:06:34;93894.31;;;14.24;46.59
35676;BME280;21790;42.668;23.298;2023-02-25T07:09:00;93883.47;;;14.04;47.24
35676;BME280;21790;42.668;23.298;2023-02-25T07:11:28;93876.66;;;14.27;46.92
35676;BME280;21790;42.668;23.298;2023-02-25T07:13:54;93868.06;;;14.08;46.93
35676;BME280;21790;42.668;23.298;2023-02-25T07:16:20;93866.81;;;14.48;46.07
35676;BME280;21790;42.668;23.298;2023-02-25T07:18:46;93865.06;;;14.51;45.89
35676;BME280;21790;42.668;23.298;2023-02-25T07:21:13;93856.47;;;14.43;45.95
35676;BME280;21790;42.668;23.298;2023-02-25T07:23:41;93864.53;;;14.36;46.17
35676;BME280;21790;42.668;23.298;2023-02-25T07:26:09;93860.97;;;14.69;45.75
35676;BME280;21790;42.668;23.298;2023-02-25T07:28:35;93849.59;;;14.78;45.53
35676;BME280;21790;42.668;23.298;2023-02-25T07:31:03;93834.22;;;14.27;46.20
35676;BME280;21790;42.668;23.298;2023-02-25T07:33:30;93821.28;;;14.62;45.43
35676;BME280;21790;42.668;23.298;2023-02-25T07:35:56;93835.72;;;14.67;45.14
35676;BME280;21790;42.668;23.298;2023-02-25T07:38:22;93835.75;;;14.39;45.75
35676;BME280;21790;42.668;23.298;2023-02-25T07:40:48;93823.28;;;14.79;45.44
35676;BME280;21790;42.668;23.298;2023-02-25T07:43:13;93827.63;;;14.57;45.51
35676;BME280;21790;42.668;23.298;2023-02-25T07:45:39;93817.00;;;14.67;45.28
35676;BME280;21790;42.668;23.298;2023-02-25T07:48:05;93803.97;;;15.08;44.38
35676;BME280;21790;42.668;23.298;2023-02-25T07:50:30;93783.22;;;15.10;44.06
35676;BME280;21790;42.668;23.298;2023-02-25T07:52:59;93791.13;;;15.00;44.18
35676;BME280;21790;42.668;23.298;2023-02-25T07:55:24;93805.16;;;15.24;44.09
35676;BME280;21790;42.668;23.298;2023-02-25T07:57:50;93793.19;;;15.40;43.79
35676;BME280;21790;42.668;23.298;2023-02-25T08:00:16;93777.63;;;15.62;43.69
35676;BME280;21790;42.668;23.298;2023-02-25T08:02:42;93779.41;;;15.65;43.30
35676;BME280;21790;42.668;23.298;2023-02-25T08:05:08;93769.31;;;15.56;43.41
35676;BME280;21790;42.668;23.298;2023-02-25T08:07:33;93770.94;;;15.81;42.86
35676;BME280;21790;42.668;23.298;2023-02-25T08:09:59;93775.06;;;15.99;42.25
35676;BME280;21790;42.668;23.298;2023-02-25T08:12:28;93767.34;;;16.16;42.60
35676;BME280;21790;42.668;23.298;2023-02-25T08:14:53;93775.19;;;16.18;42.16
35676;BME280;21790;42.668;23.298;2023-02-25T08:17:20;93782.47;;;15.97;42.85
35676;BME280;21790;42.668;23.298;2023-02-25T08:19:45;93769.53;;;15.94;42.24
35676;BME280;21790;42.668;23.298;2023-02-25T08:22:11;93788.69;;;16.08;41.93
35676;BME280;21790;42.668;23.298;2023-02-25T08:24:38;93780.31;;;16.38;41.59
35676;BME280;21790;42.668;23.298;2023-02-25T08:27:04;93770.50;;;16.56;41.28
35676;BME280;21790;42.668;23.298;2023-02-25T08:29:32;93761.75;;;16.70;40.88
35676;BME280;21790;42.668;23.298;2023-02-25T08:31:57;93763.97;;;16.48;40.77
35676;BME280;21790;42.668;23.298;2023-02-25T08:34:23;93772.06;;;16.51;40.75
35676;BME280;21790;42.668;23.298;2023-02-25T08:36:49;93761.66;;;16.27;41.30
35676;BME280;21790;42.668;23.298;2023-02-25T08:39:14;93755.69;;;16.42;41.08
35676;BME280;21790;42.668;23.298;2023-02-25T08:41:41;93759.94;;;16.49;41.01
35676;BME280;21790;42.668;23.298;2023-02-25T08:44:08;93755.50;;;16.35;41.87
35676;BME280;21790;42.668;23.298;2023-02-25T08:46:34;93739.94;;;16.45;44.02
35676;BME280;21790;42.668;23.298;2023-02-25T08:49:00;93719.19;;;17.07;43.35
35676;BME280;21790;42.668;23.298;2023-02-25T08:51:26;93735.03;;;17.37;43.90
35676;BME280;21790;42.668;23.298;2023-02-25T08:54:02;93735.25;;;17.76;41.41
35676;BME280;21790;42.668;23.298;2023-02-25T08:56:29;93734.38;;;18.00;39.45
35676;BME280;21790;42.668;23.298;2023-02-25T08:59:00;93743.50;;;18.01;38.54
35676;BME280;21790;42.668;23.298;2023-02-25T09:01:33;93728.97;;;17.89;38.50
35676;BME280;21790;42.668;23.298;2023-02-25T09:04:20;93746.38;;;17.63;39.03
35676;BME280;21790;42.668;23.298;2023-02-25T09:06:51;93729.53;;;17.50;39.04
35676;BME280;21790;42.668;23.298;2023-02-25T09:09:19;93719.66;;;17.11;39.63
35676;BME280;21790;42.668;23.298;2023-02-25T09:11:46;93709.09;;;17.23;39.43
35676;BME280;21790;42.668;23.298;2023-02-25T09:14:13;93721.41;;;17.33;39.35
35676;BME280;21790;42.668;23.298;2023-02-25T09:16:39;93708.63;;;17.38;39.25
35676;BME280;21790;42.668;23.298;2023-02-25T09:19:04;93710.34;;;17.41;39.21
35676;BME280;21790;42.668;23.298;2023-02-25T09:21:31;93712.66;;;17.24;39.56
35676;BME280;21790;42.668;23.298;2023-02-25T09:23:58;93713.84;;;16.42;41.64
35676;BME280;21790;42.668;23.298;2023-02-25T09:26:24;93709.56;;;16.41;41.74
35676;BME280;21790;42.668;23.298;2023-02-25T09:28:50;93710.44;;;16.55;41.42
35676;BME280;21790;42.668;23.298;2023-02-25T09:31:17;93698.94;;;16.64;41.34
35676;BME280;21790;42.668;23.298;2023-02-25T09:33:44;93686.91;;;16.75;41.14
35676;BME280;21790;42.668;23.298;2023-02-25T09:36:13;93686.00;;;16.85;41.31
35676;BME280;21790;42.668;23.298;2023-02-25T09:38:40;93707.47;;;16.23;42.70
35676;BME280;21790;42.668;23.298;2023-02-25T09:41:32;93674.06;;;16.66;41.67
35676;BME280;21790;42.668;23.298;2023-02-25T09:44:12;93687.06;;;16.82;41.33
35676;BME280;21790;42.668;23.298;2023-02-25T09:47:11;93669.06;;;16.59;41.97
35676;BME280;21790;42.668;23.298;2023-02-25T09:49:53;93674.63;;;16.83;41.02
35676;BME280;21790;42.668;23.298;2023-02-25T09:52:24;93664.81;;;16.77;40.87
35676;BME280;21790;42.668;23.298;2023-02-25T09:57:38;93672.97;;;16.75;40.87
35676;BME280;21790;42.668;23.298;2023-02-25T10:00:17;93661.28;;;16.95;40.76
35676;BME280;21790;42.668;23.298;2023-02-25T10:02:59;93645.22;;;17.01;40.22
35676;BME280;21790;42.668;23.298;2023-02-25T10:05:48;93667.28;;;16.80;40.97
35676;BME280;21790;42.668;23.298;2023-02-25T10:11:51;93634.97;;;16.47;41.29
35676;BME280;21790;42.668;23.298;2023-02-25T10:18:03;93641.56;;;16.25;41.83
35676;BME280;21790;42.668;23.298;2023-02-25T10:26:16;93584.47;;;16.51;39.60
35676;BME280;21790;42.668;23.298;2023-02-25T10:28:48;93585.88;;;16.63;38.29
35676;BME280;21790;42.668;23.298;2023-02-25T10:31:17;93548.75;;;16.49;39.22
35676;BME280;21790;42.668;23.298;2023-02-25T10:33:45;93577.03;;;15.97;40.59
35676;BME280;21790;42.668;23.298;2023-02-25T10:36:15;93571.47;;;16.16;40.80
35676;BME280;21790;42.668;23.298;2023-02-25T10:38:49;93591.63;;;16.27;40.43
35676;BME280;21790;42.668;23.298;2023-02-25T10:41:16;93593.41;;;16.68;39.51
35676;BME280;21790;42.668;23.298;2023-02-25T10:43:44;93584.38;;;16.62;39.42
35676;BME280;21790;42.668;23.298;2023-02-25T10:46:31;93594.25;;;16.63;39.78
35676;BME280;21790;42.668;23.298;2023-02-25T10:49:00;93594.09;;;16.74;38.55
35676;BME280;21790;42.668;23.298;2023-02-25T10:51:26;93571.97;;;16.76;37.17
35676;BME280;21790;42.668;23.298;2023-02-25T10:56:27;93540.66;;;17.34;33.85
35676;BME280;21790;42.668;23.298;2023-02-25T10:59:00;93530.72;;;17.20;32.56
35676;BME280;21790;42.668;23.298;2023-02-25T11:01:34;93533.28;;;17.63;33.97
35676;BME280;21790;42.668;23.298;2023-02-25T11:04:09;93512.38;;;17.24;35.08
35676;BME280;21790;42.668;23.298;2023-02-25T11:06:38;93560.06;;;16.94;35.90
35676;BME280;21790;42.668;23.298;2023-02-25T11:09:26;93542.88;;;17.35;35.76
35676;BME280;21790;42.668;23.298;2023-02-25T11:12:09;93542.38;;;17.37;35.66
35676;BME280;21790;42.668;23.298;2023-02-25T11:14:36;93544.25;;;16.84;37.25
35676;BME280;21790;42.668;23.298;2023-02-25T11:17:11;93541.63;;;17.04;34.54
35676;BME280;21790;42.668;23.298;2023-02-25T11:19:41;93508.22;;;16.99;32.81
35676;BME280;21790;42.668;23.298;2023-02-25T11:22:15;93529.00;;;17.17;33.84
35676;BME280;21790;42.668;23.298;2023-02-25T11:24:41;93503.47;;;17.26;31.89
35676;BME280;21790;42.668;23.298;2023-02-25T11:27:39;93502.88;;;17.59;31.34
35676;BME280;21790;42.668;23.298;2023-02-25T11:30:16;93482.81;;;17.74;30.88
35676;BME280;21790;42.668;23.298;2023-02-25T11:32:49;93486.25;;;17.67;31.22
35676;BME280;21790;42.668;23.298;2023-02-25T11:35:23;93476.84;;;18.17;30.68
35676;BME280;21790;42.668;23.298;2023-02-25T11:37:58;93461.31;;;17.69;30.82
35676;BME280;21790;42.668;23.298;2023-02-25T11:40:41;93463.78;;;17.85;30.84
35676;BME280;21790;42.668;23.298;2023-02-25T11:43:24;93462.50;;;17.86;30.87
35676;BME280;21790;42.668;23.298;2023-02-25T11:45:55;93482.72;;;17.66;31.20
35676;BME280;21790;42.668;23.298;2023-02-25T12:00:21;93470.53;;;18.50;30.73
35676;BME280;21790;42.668;23.298;2023-02-25T12:34:39;93479.00;;;18.24;31.84
35676;BME280;21790;42.668;23.298;2023-02-25T12:40:27;93430.31;;;18.40;31.42
35676;BME280;21790;42.668;23.298;2023-02-25T12:43:09;93438.19;;;17.55;32.46
35676;BME280;21790;42.668;23.298;2023-02-25T12:45:46;93432.56;;;18.08;31.94
35676;BME280;21790;42.668;23.298;2023-02-25T12:54:05;93394.53;;;18.05;31.67
35676;BME280;21790;42.668;23.298;2023-02-25T12:59:49;93397.00;;;17.95;32.25
35676;BME280;21790;42.668;23.298;2023-02-25T13:05:28;93386.47;;;18.01;31.70
35676;BME280;21790;42.668;23.298;2023-02-25T13:19:53;93366.03;;;17.72;31.84
35676;BME280;21790;42.668;23.298;2023-02-25T13:44:31;93350.81;;;18.49;30.27
35676;BME280;21790;42.668;23.298;2023-02-25T14:00:53;93372.06;;;18.31;31.76
35676;BME280;21790;42.668;23.298;2023-02-25T14:06:27;93370.16;;;18.26;31.81
35676;BME280;21790;42.668;23.298;2023-02-25T14:09:32;93372.00;;;18.44;31.61
35676;BME280;21790;42.668;23.298;2023-02-25T14:18:41;93360.44;;;18.82;30.95
35676;BME280;21790;42.668;23.298;2023-02-25T14:23:57;93349.81;;;18.59;30.44
35676;BME280;21790;42.668;23.298;2023-02-25T14:29:01;93322.28;;;18.92;30.42
35676;BME280;21790;42.668;23.298;2023-02-25T14:31:40;93357.50;;;18.66;30.62
35676;BME280;21790;42.668;23.298;2023-02-25T14:47:41;93345.88;;;18.83;30.66
35676;BME280;21790;42.668;23.298;2023-02-25T15:07:03;93410.06;;;18.26;32.44
35676;BME280;21790;42.668;23.298;2023-02-25T15:09:57;93460.16;;;18.24;32.77
35676;BME280;21790;42.668;23.298;2023-02-25T15:23:56;93398.88;;;18.26;33.19
35676;BME280;21790;42.668;23.298;2023-02-25T15:27:00;93402.72;;;18.36;33.10
35676;BME280;21790;42.668;23.298;2023-02-25T15:34:37;93396.41;;;18.23;33.32
35676;BME280;21790;42.668;23.298;2023-02-25T15:37:24;93398.84;;;18.60;32.73
35676;BME280;21790;42.668;23.298;2023-02-25T15:42:56;93386.19;;;18.59;32.95
35676;BME280;21790;42.668;23.298;2023-02-25T16:05:52;93385.31;;;18.51;32.74
35676;BME280;21790;42.668;23.298;2023-02-25T16:08:25;93407.34;;;18.00;33.41
35676;BME280;21790;42.668;23.298;2023-02-25T16:10:54;93387.91;;;17.81;33.80
35676;BME280;21790;42.668;23.298;2023-02-25T16:13:30;93402.44;;;18.27;33.14
35676;BME280;21790;42.668;23.298;2023-02-25T16:15:56;93382.03;;;18.06;33.30
35676;BME280;21790;42.668;23.298;2023-02-25T16:18:38;93376.41;;;18.19;33.26
35676;BME280;21790;42.668;23.298;2023-02-25T16:21:17;93407.00;;;18.37;32.97
35676;BME280;21790;42.668;23.298;2023-02-25T16:23:46;93405.53;;;18.23;33.25
35676;BME280;21790;42.668;23.298;2023-02-25T16:32:01;93386.84;;;18.73;32.65
35676;BME280;21790;42.668;23.298;2023-02-25T16:40:53;93425.31;;;18.25;33.07
35676;BME280;21790;42.668;23.298;2023-02-25T16:43:29;93414.91;;;18.26;33.32
35676;BME280;21790;42.668;23.298;2023-02-25T16:45:59;93406.66;;;18.41;33.31
35676;BME280;21790;42.668;23.298;2023-02-25T16:51:36;93442.38;;;18.48;32.91
35676;BME280;21790;42.668;23.298;2023-02-25T16:54:36;93418.56;;;18.55;33.07
35676;BME280;21790;42.668;23.298;2023-02-25T16:57:04;93433.91;;;17.93;33.87
35676;BME280;21790;42.668;23.298;2023-02-25T16:59:33;93444.50;;;18.55;33.19
35676;BME280;21790;42.668;23.298;2023-02-25T17:08:15;93467.22;;;18.38;33.66
35676;BME280;21790;42.668;23.298;2023-02-25T17:10:43;93436.28;;;18.36;33.55
35676;BME280;21790;42.668;23.298;2023-02-25T17:13:22;93458.69;;;18.57;34.14
35676;BME280;21790;42.668;23.298;2023-02-25T17:15:57;93450.13;;;18.76;33.29
35676;BME280;21790;42.668;23.298;2023-02-25T17:18:50;93449.31;;;18.89;33.27
35676;BME280;21790;42.668;23.298;2023-02-25T17:21:52;93466.63;;;18.32;33.99
35676;BME280;21790;42.668;23.298;2023-02-25T17:24:27;93473.84;;;18.15;34.25